Englewood, CO (80155)

8:07 PM MST on November 21, 2014 (GMT -0700)
Walnut Hills | Change Station
CLOSE
Current Station
Personal Weather Station
Location: Centennial, CO
Elevation: 5800 ft
Nearby Weather Stations

Elev 5800 ft 39.59 °N, 104.89 °W | Updated 1 minute ago

Partly Cloudy
Partly Cloudy
41.9 °F
Feels Like 42 °F
N
0.0
Wind Variable Wind from SSW
Gusts 1.0 mph

Today
High -- | Low -- °F
--% Chance of Precip.
Yesterday
High -- | Low -- °F
Precip. -- in
6:50 AM 4:39 PM
Waning Crescent, 0% visible
Pressure 30.04 in
Visibility 10.0 miles
Clouds Few 12000 ft
Windchill 42 °F
Dew Point 20 °F
Humidity 41%
Rainfall -999.00 in
Snow Depth Not available.
UV 0 out of 12
Pollen .10 out of 12
Air Quality Not available.
Flu Activity Not available.
METAR KAPA 220253Z 17007KT 10SM FEW120 02/M06 A2999 RMK AO2 SLP170 T00221061 51010

More Conditions Fewer Conditions

Pressure 30.04 in
Visibility 10.0 miles
Clouds Few 12000 ft
Windchill 42 °F
Dew Point 20 °F
Humidity 41%
Rainfall -999.00 in
Snow Depth Not available.
UV 0 out of 12
Pollen .10 out of 12
Air Quality Not available.
Flu Activity Not available.
METAR KAPA 220253Z 17007KT 10SM FEW120 02/M06 A2999 RMK AO2 SLP170 T00221061 51010

More Conditions Fewer Conditions

10-Day Weather Forecast

Almanac

Astronomy

Nov. 21, 2014 Rise Set
Actual Time
Civil Twilight
Nautical Twilight
Astronomical Twilight
Moon
Length of Visible Light
Length of Day
Tomorrow will be .
, % of the Moon is Illuminated

Today's Extremes

State Highs State Lows

Community

WunderPhotos

Upload Photos

1,772,770 photos uploaded!

WunderBlogs® & News

Nearby

Air Quality

  Air Quality AQ Index Pollutant
Not available.

Snow Depth

Station Depth Elevation

Earthquake Activity

City Distance Mag. Time & Date
Minimum magnitude displayed is 2.5.

Coastal Water Temperatures

Place Temperature

Nearby Weather Stations